sensor_id;sensor_type;location;lat;lon;timestamp;temperature;humidity
59973;DHT22;55298;-36.624;-64.282;2023-07-28T00:01:18;7.30;99.90
59973;DHT22;55298;-36.624;-64.282;2023-07-28T00:03:47;7.30;99.90
59973;DHT22;55298;-36.624;-64.282;2023-07-28T00:06:16;7.20;99.90
59973;DHT22;55298;-36.624;-64.282;2023-07-28T00:08:43;7.20;99.90
59973;DHT22;55298;-36.624;-64.282;2023-07-28T00:11:13;7.20;99.90
59973;DHT22;55298;-36.624;-64.282;2023-07-28T00:13:42;7.20;99.90
59973;DHT22;55298;-36.624;-64.282;2023-07-28T00:16:10;7.20;99.90
59973;DHT22;55298;-36.624;-64.282;2023-07-28T00:18:38;7.20;99.90
59973;DHT22;55298;-36.624;-64.282;2023-07-28T00:21:06;7.20;99.90
59973;DHT22;55298;-36.624;-64.282;2023-07-28T00:23:33;7.20;99.90
59973;DHT22;55298;-36.624;-64.282;2023-07-28T00:26:01;7.20;99.90
59973;DHT22;55298;-36.624;-64.282;2023-07-28T00:28:29;7.20;99.90
59973;DHT22;55298;-36.624;-64.282;2023-07-28T00:30:56;7.10;99.90
59973;DHT22;55298;-36.624;-64.282;2023-07-28T00:33:24;7.10;99.90
59973;DHT22;55298;-36.624;-64.282;2023-07-28T00:35:52;7.00;99.90
59973;DHT22;55298;-36.624;-64.282;2023-07-28T00:38:19;6.90;99.90
59973;DHT22;55298;-36.624;-64.282;2023-07-28T00:40:47;6.90;99.90
59973;DHT22;55298;-36.624;-64.282;2023-07-28T00:43:15;6.80;99.90
59973;DHT22;55298;-36.624;-64.282;2023-07-28T00:45:42;6.70;99.90
59973;DHT22;55298;-36.624;-64.282;2023-07-28T00:48:13;6.70;99.90
59973;DHT22;55298;-36.624;-64.282;2023-07-28T00:50:45;6.60;99.90
59973;DHT22;55298;-36.624;-64.282;2023-07-28T00:53:14;6.60;99.90
59973;DHT22;55298;-36.624;-64.282;2023-07-28T00:55:42;6.60;99.90
59973;DHT22;55298;-36.624;-64.282;2023-07-28T00:58:10;6.60;99.90
59973;DHT22;55298;-36.624;-64.282;2023-07-28T01:00:37;6.50;99.90
59973;DHT22;55298;-36.624;-64.282;2023-07-28T01:03:05;6.50;99.90
59973;DHT22;55298;-36.624;-64.282;2023-07-28T01:05:44;6.50;99.90
59973;DHT22;55298;-36.624;-64.282;2023-07-28T01:08:39;6.40;99.90
59973;DHT22;55298;-36.624;-64.282;2023-07-28T01:11:08;6.40;99.90
59973;DHT22;55298;-36.624;-64.282;2023-07-28T01:13:35;6.40;99.90
59973;DHT22;55298;-36.624;-64.282;2023-07-28T01:16:03;6.40;99.90
59973;DHT22;55298;-36.624;-64.282;2023-07-28T01:18:31;6.40;99.90
59973;DHT22;55298;-36.624;-64.282;2023-07-28T01:21:01;6.40;99.90
59973;DHT22;55298;-36.624;-64.282;2023-07-28T01:23:44;6.40;99.90
59973;DHT22;55298;-36.624;-64.282;2023-07-28T01:26:17;6.40;99.90
59973;DHT22;55298;-36.624;-64.282;2023-07-28T01:28:46;6.40;99.90
59973;DHT22;55298;-36.624;-64.282;2023-07-28T01:31:15;6.40;99.90
59973;DHT22;55298;-36.624;-64.282;2023-07-28T01:33:44;6.40;99.90
59973;DHT22;55298;-36.624;-64.282;2023-07-28T01:36:12;6.40;99.90
59973;DHT22;55298;-36.624;-64.282;2023-07-28T01:38:40;6.40;99.90
59973;DHT22;55298;-36.624;-64.282;2023-07-28T01:41:08;6.40;99.90
59973;DHT22;55298;-36.624;-64.282;2023-07-28T01:43:36;6.40;99.90
59973;DHT22;55298;-36.624;-64.282;2023-07-28T01:46:03;6.40;99.90
59973;DHT22;55298;-36.624;-64.282;2023-07-28T01:48:31;6.40;99.90
59973;DHT22;55298;-36.624;-64.282;2023-07-28T01:50:59;6.40;99.90
59973;DHT22;55298;-36.624;-64.282;2023-07-28T01:53:26;6.40;99.90
59973;DHT22;55298;-36.624;-64.282;2023-07-28T01:55:54;6.20;99.90
59973;DHT22;55298;-36.624;-64.282;2023-07-28T01:58:22;6.30;99.90
59973;DHT22;55298;-36.624;-64.282;2023-07-28T02:00:50;6.30;99.90
59973;DHT22;55298;-36.624;-64.282;2023-07-28T02:03:19;6.20;99.90
59973;DHT22;55298;-36.624;-64.282;2023-07-28T02:05:47;6.30;99.90
59973;DHT22;55298;-36.624;-64.282;2023-07-28T02:10:45;6.30;99.90
59973;DHT22;55298;-36.624;-64.282;2023-07-28T02:13:13;6.20;99.90
59973;DHT22;55298;-36.624;-64.282;2023-07-28T02:15:41;6.30;99.90
59973;DHT22;55298;-36.624;-64.282;2023-07-28T02:18:09;6.20;99.90
59973;DHT22;55298;-36.624;-64.282;2023-07-28T02:20:37;6.20;99.90
59973;DHT22;55298;-36.624;-64.282;2023-07-28T02:23:08;6.20;99.90
59973;DHT22;55298;-36.624;-64.282;2023-07-28T02:25:42;6.10;99.90
59973;DHT22;55298;-36.624;-64.282;2023-07-28T02:28:10;6.10;99.90
59973;DHT22;55298;-36.624;-64.282;2023-07-28T02:30:39;6.10;99.90
59973;DHT22;55298;-36.624;-64.282;2023-07-28T02:33:09;6.00;99.90
59973;DHT22;55298;-36.624;-64.282;2023-07-28T02:35:37;5.90;99.90
59973;DHT22;55298;-36.624;-64.282;2023-07-28T02:38:05;6.00;99.90
59973;DHT22;55298;-36.624;-64.282;2023-07-28T02:40:33;5.90;99.90
59973;DHT22;55298;-36.624;-64.282;2023-07-28T02:43:01;5.90;99.90
59973;DHT22;55298;-36.624;-64.282;2023-07-28T02:45:28;5.90;99.90
59973;DHT22;55298;-36.624;-64.282;2023-07-28T02:47:56;5.90;99.90
59973;DHT22;55298;-36.624;-64.282;2023-07-28T02:50:24;5.80;99.90
59973;DHT22;55298;-36.624;-64.282;2023-07-28T02:52:51;5.80;99.90
59973;DHT22;55298;-36.624;-64.282;2023-07-28T02:55:19;5.80;99.90
59973;DHT22;55298;-36.624;-64.282;2023-07-28T02:57:47;5.80;99.90
59973;DHT22;55298;-36.624;-64.282;2023-07-28T03:00:20;5.80;99.90
59973;DHT22;55298;-36.624;-64.282;2023-07-28T03:02:51;5.80;99.90
59973;DHT22;55298;-36.624;-64.282;2023-07-28T03:05:19;5.80;99.90
59973;DHT22;55298;-36.624;-64.282;2023-07-28T03:07:48;5.80;99.90
59973;DHT22;55298;-36.624;-64.282;2023-07-28T03:10:16;5.90;99.90
59973;DHT22;55298;-36.624;-64.282;2023-07-28T03:12:47;5.80;99.90
59973;DHT22;55298;-36.624;-64.282;2023-07-28T03:15:15;5.80;99.90
59973;DHT22;55298;-36.624;-64.282;2023-07-28T03:17:43;5.90;99.90
59973;DHT22;55298;-36.624;-64.282;2023-07-28T03:20:11;5.90;99.90
59973;DHT22;55298;-36.624;-64.282;2023-07-28T03:22:39;6.00;99.90
59973;DHT22;55298;-36.624;-64.282;2023-07-28T03:25:06;6.00;99.90
59973;DHT22;55298;-36.624;-64.282;2023-07-28T03:27:34;5.90;99.90
59973;DHT22;55298;-36.624;-64.282;2023-07-28T03:30:02;5.80;99.90
59973;DHT22;55298;-36.624;-64.282;2023-07-28T03:32:33;5.80;99.90
59973;DHT22;55298;-36.624;-64.282;2023-07-28T03:35:01;5.80;99.90
59973;DHT22;55298;-36.624;-64.282;2023-07-28T03:37:32;5.80;99.90
59973;DHT22;55298;-36.624;-64.282;2023-07-28T03:40:00;5.80;99.90
59973;DHT22;55298;-36.624;-64.282;2023-07-28T03:42:28;5.70;99.90
59973;DHT22;55298;-36.624;-64.282;2023-07-28T03:44:56;5.70;99.90
59973;DHT22;55298;-36.624;-64.282;2023-07-28T03:47:23;5.70;99.90
59973;DHT22;55298;-36.624;-64.282;2023-07-28T03:49:51;5.70;99.90
59973;DHT22;55298;-36.624;-64.282;2023-07-28T03:52:19;5.60;99.90
59973;DHT22;55298;-36.624;-64.282;2023-07-28T03:54:46;5.60;99.90
59973;DHT22;55298;-36.624;-64.282;2023-07-28T03:57:14;5.60;99.90
59973;DHT22;55298;-36.624;-64.282;2023-07-28T03:59:42;5.60;99.90
59973;DHT22;55298;-36.624;-64.282;2023-07-28T04:02:12;5.50;99.90
59973;DHT22;55298;-36.624;-64.282;2023-07-28T04:04:40;5.50;99.90
59973;DHT22;55298;-36.624;-64.282;2023-07-28T04:07:20;5.50;99.90
59973;DHT22;55298;-36.624;-64.282;2023-07-28T04:09:53;5.50;99.90
59973;DHT22;55298;-36.624;-64.282;2023-07-28T04:12:26;5.50;99.90
59973;DHT22;55298;-36.624;-64.282;2023-07-28T04:14:54;5.60;99.90
59973;DHT22;55298;-36.624;-64.282;2023-07-28T04:17:21;5.50;99.90
59973;DHT22;55298;-36.624;-64.282;2023-07-28T04:19:49;5.60;99.90
59973;DHT22;55298;-36.624;-64.282;2023-07-28T04:22:17;5.50;99.90
59973;DHT22;55298;-36.624;-64.282;2023-07-28T04:24:48;5.50;99.90
59973;DHT22;55298;-36.624;-64.282;2023-07-28T04:27:15;5.60;99.90
59973;DHT22;55298;-36.624;-64.282;2023-07-28T04:29:43;5.60;99.90
59973;DHT22;55298;-36.624;-64.282;2023-07-28T04:32:11;5.60;99.90
59973;DHT22;55298;-36.624;-64.282;2023-07-28T04:34:38;5.50;99.90
59973;DHT22;55298;-36.624;-64.282;2023-07-28T04:37:06;5.50;99.90
59973;DHT22;55298;-36.624;-64.282;2023-07-28T04:39:34;5.50;99.90
59973;DHT22;55298;-36.624;-64.282;2023-07-28T04:42:01;5.40;99.90
59973;DHT22;55298;-36.624;-64.282;2023-07-28T04:44:29;5.40;99.90
59973;DHT22;55298;-36.624;-64.282;2023-07-28T04:46:57;5.40;99.90
59973;DHT22;55298;-36.624;-64.282;2023-07-28T04:49:25;5.30;99.90
59973;DHT22;55298;-36.624;-64.282;2023-07-28T04:51:52;5.30;99.90
59973;DHT22;55298;-36.624;-64.282;2023-07-28T04:54:20;5.20;99.90
59973;DHT22;55298;-36.624;-64.282;2023-07-28T04:56:48;5.20;99.90
59973;DHT22;55298;-36.624;-64.282;2023-07-28T04:59:19;5.20;99.90
59973;DHT22;55298;-36.624;-64.282;2023-07-28T05:01:47;5.10;99.90
59973;DHT22;55298;-36.624;-64.282;2023-07-28T05:04:15;5.10;99.90
59973;DHT22;55298;-36.624;-64.282;2023-07-28T05:06:45;5.10;99.90
59973;DHT22;55298;-36.624;-64.282;2023-07-28T05:09:13;5.10;99.90
59973;DHT22;55298;-36.624;-64.282;2023-07-28T05:11:41;5.10;99.90
59973;DHT22;55298;-36.624;-64.282;2023-07-28T05:14:08;5.10;99.90
59973;DHT22;55298;-36.624;-64.282;2023-07-28T05:16:36;5.10;99.90
59973;DHT22;55298;-36.624;-64.282;2023-07-28T05:19:07;5.10;99.90
59973;DHT22;55298;-36.624;-64.282;2023-07-28T05:21:35;5.00;99.90
59973;DHT22;55298;-36.624;-64.282;2023-07-28T05:26:38;5.00;99.90
59973;DHT22;55298;-36.624;-64.282;2023-07-28T05:29:06;5.00;99.90
59973;DHT22;55298;-36.624;-64.282;2023-07-28T05:31:33;5.00;99.90
59973;DHT22;55298;-36.624;-64.282;2023-07-28T05:34:01;5.00;99.90
59973;DHT22;55298;-36.624;-64.282;2023-07-28T05:36:29;5.00;99.90
59973;DHT22;55298;-36.624;-64.282;2023-07-28T05:38:57;5.00;99.90
59973;DHT22;55298;-36.624;-64.282;2023-07-28T05:41:27;5.00;99.90
59973;DHT22;55298;-36.624;-64.282;2023-07-28T05:43:55;4.90;99.90
59973;DHT22;55298;-36.624;-64.282;2023-07-28T05:46:23;4.90;99.90
59973;DHT22;55298;-36.624;-64.282;2023-07-28T05:48:50;4.90;99.90
59973;DHT22;55298;-36.624;-64.282;2023-07-28T05:51:18;4.90;99.90
59973;DHT22;55298;-36.624;-64.282;2023-07-28T05:53:45;4.90;99.90
59973;DHT22;55298;-36.624;-64.282;2023-07-28T05:56:14;4.70;99.90
59973;DHT22;55298;-36.624;-64.282;2023-07-28T05:58:42;4.80;99.90
59973;DHT22;55298;-36.624;-64.282;2023-07-28T06:01:10;4.80;99.90
59973;DHT22;55298;-36.624;-64.282;2023-07-28T06:03:37;4.80;99.90
59973;DHT22;55298;-36.624;-64.282;2023-07-28T06:06:05;4.80;99.90
59973;DHT22;55298;-36.624;-64.282;2023-07-28T06:08:34;4.70;99.90
59973;DHT22;55298;-36.624;-64.282;2023-07-28T06:11:06;4.70;99.90
59973;DHT22;55298;-36.624;-64.282;2023-07-28T06:13:34;4.70;99.90
59973;DHT22;55298;-36.624;-64.282;2023-07-28T06:16:01;4.70;99.90
59973;DHT22;55298;-36.624;-64.282;2023-07-28T06:18:29;4.60;99.90
59973;DHT22;55298;-36.624;-64.282;2023-07-28T06:20:57;4.70;99.90
59973;DHT22;55298;-36.624;-64.282;2023-07-28T06:23:25;4.70;99.90
59973;DHT22;55298;-36.624;-64.282;2023-07-28T06:25:52;4.70;99.90
59973;DHT22;55298;-36.624;-64.282;2023-07-28T06:28:22;4.70;99.90
59973;DHT22;55298;-36.624;-64.282;2023-07-28T06:30:56;4.70;99.90
59973;DHT22;55298;-36.624;-64.282;2023-07-28T06:33:25;4.70;99.90
59973;DHT22;55298;-36.624;-64.282;2023-07-28T06:35:53;4.60;99.90
59973;DHT22;55298;-36.624;-64.282;2023-07-28T06:38:20;4.60;99.90
59973;DHT22;55298;-36.624;-64.282;2023-07-28T06:40:48;4.60;99.90
59973;DHT22;55298;-36.624;-64.282;2023-07-28T06:43:16;4.60;99.90
59973;DHT22;55298;-36.624;-64.282;2023-07-28T06:45:45;4.60;99.90
59973;DHT22;55298;-36.624;-64.282;2023-07-28T06:48:12;4.50;99.90
59973;DHT22;55298;-36.624;-64.282;2023-07-28T06:50:41;4.60;99.90
59973;DHT22;55298;-36.624;-64.282;2023-07-28T06:53:08;4.50;99.90
59973;DHT22;55298;-36.624;-64.282;2023-07-28T06:55:36;4.60;99.90
59973;DHT22;55298;-36.624;-64.282;2023-07-28T06:58:06;4.50;99.90
59973;DHT22;55298;-36.624;-64.282;2023-07-28T07:00:34;4.50;99.90
59973;DHT22;55298;-36.624;-64.282;2023-07-28T07:03:02;4.50;99.90
59973;DHT22;55298;-36.624;-64.282;2023-07-28T07:05:29;4.50;99.90
59973;DHT22;55298;-36.624;-64.282;2023-07-28T07:07:57;4.50;99.90
59973;DHT22;55298;-36.624;-64.282;2023-07-28T07:10:25;4.50;99.90
59973;DHT22;55298;-36.624;-64.282;2023-07-28T07:12:53;4.40;99.90
59973;DHT22;55298;-36.624;-64.282;2023-07-28T07:15:20;4.40;99.90
59973;DHT22;55298;-36.624;-64.282;2023-07-28T07:17:48;4.40;99.90
59973;DHT22;55298;-36.624;-64.282;2023-07-28T07:20:16;4.40;99.90
59973;DHT22;55298;-36.624;-64.282;2023-07-28T07:22:43;4.40;99.90
59973;DHT22;55298;-36.624;-64.282;2023-07-28T07:25:11;4.40;99.90
59973;DHT22;55298;-36.624;-64.282;2023-07-28T07:27:39;4.40;99.90
59973;DHT22;55298;-36.624;-64.282;2023-07-28T07:30:07;4.40;99.90
59973;DHT22;55298;-36.624;-64.282;2023-07-28T07:32:34;4.40;99.90
59973;DHT22;55298;-36.624;-64.282;2023-07-28T07:35:02;4.40;99.90
59973;DHT22;55298;-36.624;-64.282;2023-07-28T07:37:30;4.30;99.90
59973;DHT22;55298;-36.624;-64.282;2023-07-28T07:39:58;4.20;99.90
59973;DHT22;55298;-36.624;-64.282;2023-07-28T07:42:39;4.10;99.90
59973;DHT22;55298;-36.624;-64.282;2023-07-28T07:45:11;3.90;99.90
59973;DHT22;55298;-36.624;-64.282;2023-07-28T07:47:40;3.90;99.90
59973;DHT22;55298;-36.624;-64.282;2023-07-28T07:50:09;3.80;99.90
59973;DHT22;55298;-36.624;-64.282;2023-07-28T07:52:38;3.80;99.90
59973;DHT22;55298;-36.624;-64.282;2023-07-28T07:55:07;3.70;99.90
59973;DHT22;55298;-36.624;-64.282;2023-07-28T07:57:35;3.60;99.90
59973;DHT22;55298;-36.624;-64.282;2023-07-28T08:00:03;3.60;99.90
59973;DHT22;55298;-36.624;-64.282;2023-07-28T08:02:32;3.70;99.90
59973;DHT22;55298;-36.624;-64.282;2023-07-28T08:04:59;3.70;99.90
59973;DHT22;55298;-36.624;-64.282;2023-07-28T08:07:27;3.70;99.90
59973;DHT22;55298;-36.624;-64.282;2023-07-28T08:09:55;3.80;99.90
59973;DHT22;55298;-36.624;-64.282;2023-07-28T08:12:23;3.80;99.90
59973;DHT22;55298;-36.624;-64.282;2023-07-28T08:14:51;3.90;99.90
59973;DHT22;55298;-36.624;-64.282;2023-07-28T08:17:19;4.00;99.90
59973;DHT22;55298;-36.624;-64.282;2023-07-28T08:19:46;4.00;99.90
59973;DHT22;55298;-36.624;-64.282;2023-07-28T08:22:14;4.10;99.90
59973;DHT22;55298;-36.624;-64.282;2023-07-28T08:24:42;4.10;99.90
59973;DHT22;55298;-36.624;-64.282;2023-07-28T08:27:09;4.20;99.90
59973;DHT22;55298;-36.624;-64.282;2023-07-28T08:29:37;4.20;99.90
59973;DHT22;55298;-36.624;-64.282;2023-07-28T08:32:05;4.30;99.90
59973;DHT22;55298;-36.624;-64.282;2023-07-28T08:34:33;4.30;99.90
59973;DHT22;55298;-36.624;-64.282;2023-07-28T08:37:01;4.30;99.90
59973;DHT22;55298;-36.624;-64.282;2023-07-28T08:39:29;4.30;99.90
59973;DHT22;55298;-36.624;-64.282;2023-07-28T08:42:01;4.30;99.90
59973;DHT22;55298;-36.624;-64.282;2023-07-28T08:44:33;4.40;99.90
59973;DHT22;55298;-36.624;-64.282;2023-07-28T08:47:03;4.50;99.90
59973;DHT22;55298;-36.624;-64.282;2023-07-28T08:49:32;4.40;99.90
59973;DHT22;55298;-36.624;-64.282;2023-07-28T08:52:03;4.50;99.90
59973;DHT22;55298;-36.624;-64.282;2023-07-28T08:54:31;4.50;99.90
59973;DHT22;55298;-36.624;-64.282;2023-07-28T08:56:59;4.50;99.90
59973;DHT22;55298;-36.624;-64.282;2023-07-28T08:59:29;4.60;99.90
59973;DHT22;55298;-36.624;-64.282;2023-07-28T09:01:58;4.60;99.90
59973;DHT22;55298;-36.624;-64.282;2023-07-28T09:04:26;4.60;99.90
59973;DHT22;55298;-36.624;-64.282;2023-07-28T09:06:53;4.70;99.90
59973;DHT22;55298;-36.624;-64.282;2023-07-28T09:09:22;4.60;99.90
59973;DHT22;55298;-36.624;-64.282;2023-07-28T09:11:52;4.60;99.90
59973;DHT22;55298;-36.624;-64.282;2023-07-28T09:14:21;4.70;99.90
59973;DHT22;55298;-36.624;-64.282;2023-07-28T09:16:53;4.70;99.90
59973;DHT22;55298;-36.624;-64.282;2023-07-28T09:19:21;4.70;99.90
59973;DHT22;55298;-36.624;-64.282;2023-07-28T09:21:58;4.70;99.90
59973;DHT22;55298;-36.624;-64.282;2023-07-28T09:24:35;4.80;99.90
59973;DHT22;55298;-36.624;-64.282;2023-07-28T09:27:03;4.90;99.90
59973;DHT22;55298;-36.624;-64.282;2023-07-28T09:29:31;4.90;99.90
59973;DHT22;55298;-36.624;-64.282;2023-07-28T09:32:06;4.80;99.90
59973;DHT22;55298;-36.624;-64.282;2023-07-28T09:34:35;5.00;99.90
59973;DHT22;55298;-36.624;-64.282;2023-07-28T09:37:06;5.00;99.90
59973;DHT22;55298;-36.624;-64.282;2023-07-28T09:39:37;5.00;99.90
59973;DHT22;55298;-36.624;-64.282;2023-07-28T09:42:07;4.90;99.90
59973;DHT22;55298;-36.624;-64.282;2023-07-28T09:44:36;4.90;99.90
59973;DHT22;55298;-36.624;-64.282;2023-07-28T09:47:04;4.90;99.90
59973;DHT22;55298;-36.624;-64.282;2023-07-28T09:49:39;4.80;99.90
59973;DHT22;55298;-36.624;-64.282;2023-07-28T09:52:10;4.80;99.90
59973;DHT22;55298;-36.624;-64.282;2023-07-28T09:54:40;4.80;99.90
59973;DHT22;55298;-36.624;-64.282;2023-07-28T09:57:13;4.80;99.90
59973;DHT22;55298;-36.624;-64.282;2023-07-28T09:59:43;4.80;99.90
59973;DHT22;55298;-36.624;-64.282;2023-07-28T10:02:13;4.70;99.90
59973;DHT22;55298;-36.624;-64.282;2023-07-28T10:04:41;4.70;99.90
59973;DHT22;55298;-36.624;-64.282;2023-07-28T10:07:12;4.70;99.90
59973;DHT22;55298;-36.624;-64.282;2023-07-28T10:09:40;4.70;99.90
59973;DHT22;55298;-36.624;-64.282;2023-07-28T10:12:23;4.80;99.90
59973;DHT22;55298;-36.624;-64.282;2023-07-28T10:15:07;4.60;99.90
59973;DHT22;55298;-36.624;-64.282;2023-07-28T10:17:35;4.60;99.90
59973;DHT22;55298;-36.624;-64.282;2023-07-28T10:20:04;4.50;99.90
59973;DHT22;55298;-36.624;-64.282;2023-07-28T10:22:45;4.60;99.90
59973;DHT22;55298;-36.624;-64.282;2023-07-28T10:25:22;4.50;99.90
59973;DHT22;55298;-36.624;-64.282;2023-07-28T10:27:51;4.50;99.90
59973;DHT22;55298;-36.624;-64.282;2023-07-28T10:30:19;4.40;99.90
59973;DHT22;55298;-36.624;-64.282;2023-07-28T10:32:50;4.40;99.90
59973;DHT22;55298;-36.624;-64.282;2023-07-28T10:35:33;4.30;99.90
59973;DHT22;55298;-36.624;-64.282;2023-07-28T10:40:51;4.20;99.90
59973;DHT22;55298;-36.624;-64.282;2023-07-28T10:43:20;4.20;99.90
59973;DHT22;55298;-36.624;-64.282;2023-07-28T10:45:50;3.90;99.90
59973;DHT22;55298;-36.624;-64.282;2023-07-28T10:48:20;3.90;99.90
59973;DHT22;55298;-36.624;-64.282;2023-07-28T10:50:51;3.80;99.90
59973;DHT22;55298;-36.624;-64.282;2023-07-28T10:53:20;3.80;99.90
59973;DHT22;55298;-36.624;-64.282;2023-07-28T10:55:53;3.80;99.90
59973;DHT22;55298;-36.624;-64.282;2023-07-28T10:58:21;3.80;99.90
59973;DHT22;55298;-36.624;-64.282;2023-07-28T11:00:57;3.80;99.90
59973;DHT22;55298;-36.624;-64.282;2023-07-28T11:03:30;3.70;99.90
59973;DHT22;55298;-36.624;-64.282;2023-07-28T11:06:01;3.60;99.90
59973;DHT22;55298;-36.624;-64.282;2023-07-28T11:08:37;4.10;99.90
59973;DHT22;55298;-36.624;-64.282;2023-07-28T11:11:18;3.40;99.90
59973;DHT22;55298;-36.624;-64.282;2023-07-28T11:13:50;3.40;99.90
59973;DHT22;55298;-36.624;-64.282;2023-07-28T11:16:28;3.40;99.90
59973;DHT22;55298;-36.624;-64.282;2023-07-28T11:19:01;3.30;99.90
59973;DHT22;55298;-36.624;-64.282;2023-07-28T11:21:30;3.20;99.90
59973;DHT22;55298;-36.624;-64.282;2023-07-28T11:24:02;3.20;99.90
59973;DHT22;55298;-36.624;-64.282;2023-07-28T11:26:34;3.20;99.90
59973;DHT22;55298;-36.624;-64.282;2023-07-28T11:29:04;3.20;99.90
59973;DHT22;55298;-36.624;-64.282;2023-07-28T11:31:50;3.00;99.90
59973;DHT22;55298;-36.624;-64.282;2023-07-28T11:34:20;3.10;99.90
59973;DHT22;55298;-36.624;-64.282;2023-07-28T11:36:48;5.70;99.90
59973;DHT22;55298;-36.624;-64.282;2023-07-28T11:39:17;3.10;99.90
59973;DHT22;55298;-36.624;-64.282;2023-07-28T11:41:46;3.00;99.90
59973;DHT22;55298;-36.624;-64.282;2023-07-28T11:44:31;3.00;99.90
59973;DHT22;55298;-36.624;-64.282;2023-07-28T11:47:03;3.10;99.90
59973;DHT22;55298;-36.624;-64.282;2023-07-28T11:49:48;3.10;99.90
59973;DHT22;55298;-36.624;-64.282;2023-07-28T11:55:35;3.20;99.90
59973;DHT22;55298;-36.624;-64.282;2023-07-28T11:58:04;3.30;99.90
59973;DHT22;55298;-36.624;-64.282;2023-07-28T12:00:35;3.20;99.90
59973;DHT22;55298;-36.624;-64.282;2023-07-28T12:03:06;3.30;99.90
59973;DHT22;55298;-36.624;-64.282;2023-07-28T12:05:41;3.40;99.90
59973;DHT22;55298;-36.624;-64.282;2023-07-28T12:08:10;3.40;99.90
59973;DHT22;55298;-36.624;-64.282;2023-07-28T12:10:53;3.50;99.90
59973;DHT22;55298;-36.624;-64.282;2023-07-28T12:13:22;3.40;99.90
59973;DHT22;55298;-36.624;-64.282;2023-07-28T12:15:53;3.40;99.90
59973;DHT22;55298;-36.624;-64.282;2023-07-28T12:18:21;3.30;99.90
59973;DHT22;55298;-36.624;-64.282;2023-07-28T12:20:53;3.20;99.90
59973;DHT22;55298;-36.624;-64.282;2023-07-28T12:23:22;3.20;99.90
59973;DHT22;55298;-36.624;-64.282;2023-07-28T12:25:51;3.20;99.90
59973;DHT22;55298;-36.624;-64.282;2023-07-28T12:28:22;3.30;99.90
59973;DHT22;55298;-36.624;-64.282;2023-07-28T12:30:51;3.30;99.90
59973;DHT22;55298;-36.624;-64.282;2023-07-28T12:33:24;3.20;99.90
59973;DHT22;55298;-36.624;-64.282;2023-07-28T12:35:53;3.20;99.90
59973;DHT22;55298;-36.624;-64.282;2023-07-28T12:38:24;3.10;99.90
59973;DHT22;55298;-36.624;-64.282;2023-07-28T12:40:54;3.20;99.90
59973;DHT22;55298;-36.624;-64.282;2023-07-28T12:43:27;3.40;99.90
59973;DHT22;55298;-36.624;-64.282;2023-07-28T12:45:57;3.40;99.90
59973;DHT22;55298;-36.624;-64.282;2023-07-28T12:48:25;3.30;99.90
59973;DHT22;55298;-36.624;-64.282;2023-07-28T12:50:52;3.50;99.90
59973;DHT22;55298;-36.624;-64.282;2023-07-28T12:53:23;3.60;99.90
59973;DHT22;55298;-36.624;-64.282;2023-07-28T12:55:52;3.80;99.90
59973;DHT22;55298;-36.624;-64.282;2023-07-28T13:03:31;4.10;99.90
59973;DHT22;55298;-36.624;-64.282;2023-07-28T13:08:37;4.10;99.90
59973;DHT22;55298;-36.624;-64.282;2023-07-28T13:11:05;4.40;99.90
59973;DHT22;55298;-36.624;-64.282;2023-07-28T13:13:36;4.40;99.90
59973;DHT22;55298;-36.624;-64.282;2023-07-28T13:16:04;4.50;99.90
59973;DHT22;55298;-36.624;-64.282;2023-07-28T13:18:34;4.60;99.90
59973;DHT22;55298;-36.624;-64.282;2023-07-28T13:21:02;4.80;99.90
59973;DHT22;55298;-36.624;-64.282;2023-07-28T13:23:33;5.10;99.90
59973;DHT22;55298;-36.624;-64.282;2023-07-28T13:26:02;5.20;99.90
59973;DHT22;55298;-36.624;-64.282;2023-07-28T13:28:33;5.30;99.90
59973;DHT22;55298;-36.624;-64.282;2023-07-28T13:31:03;5.30;99.90
59973;DHT22;55298;-36.624;-64.282;2023-07-28T13:33:31;5.40;99.90
59973;DHT22;55298;-36.624;-64.282;2023-07-28T13:35:59;5.40;99.90
59973;DHT22;55298;-36.624;-64.282;2023-07-28T13:38:34;5.80;99.90
59973;DHT22;55298;-36.624;-64.282;2023-07-28T13:41:05;5.80;99.90
59973;DHT22;55298;-36.624;-64.282;2023-07-28T13:43:39;5.90;99.90
59973;DHT22;55298;-36.624;-64.282;2023-07-28T13:48:49;6.00;99.90
59973;DHT22;55298;-36.624;-64.282;2023-07-28T13:51:18;6.10;99.90
59973;DHT22;55298;-36.624;-64.282;2023-07-28T13:58:48;6.20;99.90
59973;DHT22;55298;-36.624;-64.282;2023-07-28T14:01:17;6.60;99.90
59973;DHT22;55298;-36.624;-64.282;2023-07-28T14:03:45;6.40;99.90
59973;DHT22;55298;-36.624;-64.282;2023-07-28T14:06:13;6.70;99.90
59973;DHT22;55298;-36.624;-64.282;2023-07-28T14:08:43;7.00;99.90
59973;DHT22;55298;-36.624;-64.282;2023-07-28T14:11:16;7.20;99.90
59973;DHT22;55298;-36.624;-64.282;2023-07-28T14:13:44;7.70;99.90
59973;DHT22;55298;-36.624;-64.282;2023-07-28T14:16:15;7.60;99.90
59973;DHT22;55298;-36.624;-64.282;2023-07-28T14:18:43;7.90;99.90
59973;DHT22;55298;-36.624;-64.282;2023-07-28T14:21:15;8.10;99.90
59973;DHT22;55298;-36.624;-64.282;2023-07-28T14:23:43;8.30;99.90
59973;DHT22;55298;-36.624;-64.282;2023-07-28T14:26:13;8.20;99.90
59973;DHT22;55298;-36.624;-64.282;2023-07-28T14:28:42;8.20;99.90
59973;DHT22;55298;-36.624;-64.282;2023-07-28T14:31:10;8.20;99.90
59973;DHT22;55298;-36.624;-64.282;2023-07-28T14:33:38;8.20;99.90
59973;DHT22;55298;-36.624;-64.282;2023-07-28T14:36:07;8.40;99.90
59973;DHT22;55298;-36.624;-64.282;2023-07-28T14:38:36;8.60;99.90
59973;DHT22;55298;-36.624;-64.282;2023-07-28T14:41:03;8.60;99.90
59973;DHT22;55298;-36.624;-64.282;2023-07-28T14:43:31;8.70;99.90
59973;DHT22;55298;-36.624;-64.282;2023-07-28T14:46:01;8.90;99.90
59973;DHT22;55298;-36.624;-64.282;2023-07-28T14:48:30;9.00;99.90
59973;DHT22;55298;-36.624;-64.282;2023-07-28T14:50:59;8.90;99.90
59973;DHT22;55298;-36.624;-64.282;2023-07-28T14:53:37;8.90;99.90
59973;DHT22;55298;-36.624;-64.282;2023-07-28T14:56:06;9.20;99.90
59973;DHT22;55298;-36.624;-64.282;2023-07-28T14:58:35;9.30;99.90
59973;DHT22;55298;-36.624;-64.282;2023-07-28T15:01:03;9.50;99.90
59973;DHT22;55298;-36.624;-64.282;2023-07-28T15:03:33;9.70;99.90
59973;DHT22;55298;-36.624;-64.282;2023-07-28T15:06:02;9.70;99.90
59973;DHT22;55298;-36.624;-64.282;2023-07-28T15:08:33;9.90;99.90
59973;DHT22;55298;-36.624;-64.282;2023-07-28T15:11:04;10.20;99.90
59973;DHT22;55298;-36.624;-64.282;2023-07-28T15:15:58;10.30;99.90
59973;DHT22;55298;-36.624;-64.282;2023-07-28T15:18:26;10.60;99.90
59973;DHT22;55298;-36.624;-64.282;2023-07-28T15:21:14;9.50;99.90
59973;DHT22;55298;-36.624;-64.282;2023-07-28T15:23:46;10.60;99.90
59973;DHT22;55298;-36.624;-64.282;2023-07-28T15:26:20;10.50;99.90
59973;DHT22;55298;-36.624;-64.282;2023-07-28T15:28:48;10.40;99.90
59973;DHT22;55298;-36.624;-64.282;2023-07-28T15:31:16;10.20;99.90
59973;DHT22;55298;-36.624;-64.282;2023-07-28T15:33:44;10.30;99.90
59973;DHT22;55298;-36.624;-64.282;2023-07-28T15:36:12;10.30;99.90
59973;DHT22;55298;-36.624;-64.282;2023-07-28T15:38:40;10.40;99.90
59973;DHT22;55298;-36.624;-64.282;2023-07-28T15:41:08;10.40;99.90
59973;DHT22;55298;-36.624;-64.282;2023-07-28T15:43:36;10.40;99.90